sensor_id;sensor_type;location;lat;lon;timestamp;temperature;humidity
1766;DHT22;880;52.452;8.656;2023-03-08T00:01:19;1.20;99.90
1766;DHT22;880;52.452;8.656;2023-03-08T00:03:52;1.20;99.90
1766;DHT22;880;52.452;8.656;2023-03-08T00:06:20;1.20;99.90
1766;DHT22;880;52.452;8.656;2023-03-08T00:08:48;1.20;99.90
1766;DHT22;880;52.452;8.656;2023-03-08T00:11:15;1.10;99.90
1766;DHT22;880;52.452;8.656;2023-03-08T00:13:43;1.10;99.90
1766;DHT22;880;52.452;8.656;2023-03-08T00:16:11;1.00;99.90
1766;DHT22;880;52.452;8.656;2023-03-08T00:18:39;1.00;99.90
1766;DHT22;880;52.452;8.656;2023-03-08T00:21:15;1.00;99.90
1766;DHT22;880;52.452;8.656;2023-03-08T00:23:43;0.90;99.90
1766;DHT22;880;52.452;8.656;2023-03-08T00:26:11;0.90;99.90
1766;DHT22;880;52.452;8.656;2023-03-08T00:28:39;0.90;99.90
1766;DHT22;880;52.452;8.656;2023-03-08T00:31:09;0.90;99.90
1766;DHT22;880;52.452;8.656;2023-03-08T00:33:37;0.90;99.90
1766;DHT22;880;52.452;8.656;2023-03-08T00:36:13;0.90;99.90
1766;DHT22;880;52.452;8.656;2023-03-08T00:38:42;0.90;99.90
1766;DHT22;880;52.452;8.656;2023-03-08T00:41:09;0.80;99.90
1766;DHT22;880;52.452;8.656;2023-03-08T00:43:36;0.90;99.90
1766;DHT22;880;52.452;8.656;2023-03-08T00:46:04;0.90;99.90
1766;DHT22;880;52.452;8.656;2023-03-08T00:48:31;0.90;99.90
1766;DHT22;880;52.452;8.656;2023-03-08T00:50:58;0.90;99.90
1766;DHT22;880;52.452;8.656;2023-03-08T00:53:28;0.90;99.90
1766;DHT22;880;52.452;8.656;2023-03-08T00:55:57;0.90;99.90
1766;DHT22;880;52.452;8.656;2023-03-08T00:58:29;0.90;99.90
1766;DHT22;880;52.452;8.656;2023-03-08T01:00:57;0.90;99.90
1766;DHT22;880;52.452;8.656;2023-03-08T01:03:25;0.90;99.90
1766;DHT22;880;52.452;8.656;2023-03-08T01:05:55;0.90;99.90
1766;DHT22;880;52.452;8.656;2023-03-08T01:08:24;0.90;99.90
1766;DHT22;880;52.452;8.656;2023-03-08T01:10:57;0.90;99.90
1766;DHT22;880;52.452;8.656;2023-03-08T01:13:29;0.90;99.90
1766;DHT22;880;52.452;8.656;2023-03-08T01:15:58;0.90;99.90
1766;DHT22;880;52.452;8.656;2023-03-08T01:18:26;1.00;99.90
1766;DHT22;880;52.452;8.656;2023-03-08T01:21:03;1.00;99.90
1766;DHT22;880;52.452;8.656;2023-03-08T01:23:31;1.00;99.90
1766;DHT22;880;52.452;8.656;2023-03-08T01:26:05;1.00;99.90
1766;DHT22;880;52.452;8.656;2023-03-08T01:28:34;1.00;99.90
1766;DHT22;880;52.452;8.656;2023-03-08T01:31:07;1.00;99.90
1766;DHT22;880;52.452;8.656;2023-03-08T01:33:39;0.90;99.90
1766;DHT22;880;52.452;8.656;2023-03-08T01:36:09;0.90;99.90
1766;DHT22;880;52.452;8.656;2023-03-08T01:38:38;0.90;99.90
1766;DHT22;880;52.452;8.656;2023-03-08T01:41:06;0.90;99.90
1766;DHT22;880;52.452;8.656;2023-03-08T01:43:39;0.90;99.90
1766;DHT22;880;52.452;8.656;2023-03-08T01:49:09;0.80;99.90
1766;DHT22;880;52.452;8.656;2023-03-08T01:52:00;0.80;99.90
1766;DHT22;880;52.452;8.656;2023-03-08T01:54:38;0.80;99.90
1766;DHT22;880;52.452;8.656;2023-03-08T01:57:14;0.80;99.90
1766;DHT22;880;52.452;8.656;2023-03-08T02:00:05;0.80;99.90
1766;DHT22;880;52.452;8.656;2023-03-08T02:03:00;0.70;99.90
1766;DHT22;880;52.452;8.656;2023-03-08T02:05:42;0.80;99.90
1766;DHT22;880;52.452;8.656;2023-03-08T02:08:15;0.80;99.90
1766;DHT22;880;52.452;8.656;2023-03-08T02:10:43;0.70;99.90
1766;DHT22;880;52.452;8.656;2023-03-08T02:13:12;0.70;99.90
1766;DHT22;880;52.452;8.656;2023-03-08T02:15:42;0.70;99.90
1766;DHT22;880;52.452;8.656;2023-03-08T02:18:09;0.70;99.90
1766;DHT22;880;52.452;8.656;2023-03-08T02:20:39;0.70;99.90
1766;DHT22;880;52.452;8.656;2023-03-08T02:23:12;0.70;99.90
1766;DHT22;880;52.452;8.656;2023-03-08T02:25:48;0.60;99.90
1766;DHT22;880;52.452;8.656;2023-03-08T02:28:29;0.60;99.90
1766;DHT22;880;52.452;8.656;2023-03-08T02:30:58;0.60;99.90
1766;DHT22;880;52.452;8.656;2023-03-08T02:33:25;0.50;99.90
1766;DHT22;880;52.452;8.656;2023-03-08T02:35:52;0.50;99.90
1766;DHT22;880;52.452;8.656;2023-03-08T02:38:20;0.50;99.90
1766;DHT22;880;52.452;8.656;2023-03-08T02:40:47;0.50;99.90
1766;DHT22;880;52.452;8.656;2023-03-08T02:43:17;0.50;99.90
1766;DHT22;880;52.452;8.656;2023-03-08T02:45:45;0.50;99.90
1766;DHT22;880;52.452;8.656;2023-03-08T02:48:12;0.50;99.90
1766;DHT22;880;52.452;8.656;2023-03-08T02:50:52;0.60;99.90
1766;DHT22;880;52.452;8.656;2023-03-08T02:53:19;0.60;99.90
1766;DHT22;880;52.452;8.656;2023-03-08T02:55:47;0.60;99.90
1766;DHT22;880;52.452;8.656;2023-03-08T02:58:13;0.60;99.90
1766;DHT22;880;52.452;8.656;2023-03-08T03:00:40;0.60;99.90
1766;DHT22;880;52.452;8.656;2023-03-08T03:03:08;0.50;99.90
1766;DHT22;880;52.452;8.656;2023-03-08T03:05:40;0.50;99.90
1766;DHT22;880;52.452;8.656;2023-03-08T03:08:11;0.50;99.90
1766;DHT22;880;52.452;8.656;2023-03-08T03:10:38;0.50;99.90
1766;DHT22;880;52.452;8.656;2023-03-08T03:13:05;0.50;99.90
1766;DHT22;880;52.452;8.656;2023-03-08T03:15:33;0.50;99.90
1766;DHT22;880;52.452;8.656;2023-03-08T03:18:02;0.50;99.90
1766;DHT22;880;52.452;8.656;2023-03-08T03:20:32;0.50;99.90
1766;DHT22;880;52.452;8.656;2023-03-08T03:22:59;0.50;99.90
1766;DHT22;880;52.452;8.656;2023-03-08T03:25:37;0.50;99.90
1766;DHT22;880;52.452;8.656;2023-03-08T03:28:06;0.50;99.90
1766;DHT22;880;52.452;8.656;2023-03-08T03:30:35;0.50;99.90
1766;DHT22;880;52.452;8.656;2023-03-08T03:33:02;0.50;99.90
1766;DHT22;880;52.452;8.656;2023-03-08T03:35:31;0.50;99.90
1766;DHT22;880;52.452;8.656;2023-03-08T03:37:58;0.40;99.90
1766;DHT22;880;52.452;8.656;2023-03-08T03:40:26;0.50;99.90
1766;DHT22;880;52.452;8.656;2023-03-08T03:42:58;0.50;99.90
1766;DHT22;880;52.452;8.656;2023-03-08T03:45:25;0.50;99.90
1766;DHT22;880;52.452;8.656;2023-03-08T03:47:52;0.50;99.90
1766;DHT22;880;52.452;8.656;2023-03-08T03:50:20;0.50;99.90
1766;DHT22;880;52.452;8.656;2023-03-08T03:52:55;0.50;99.90
1766;DHT22;880;52.452;8.656;2023-03-08T03:55:22;0.50;99.90
1766;DHT22;880;52.452;8.656;2023-03-08T03:57:49;0.40;99.90
1766;DHT22;880;52.452;8.656;2023-03-08T04:00:17;0.40;99.90
1766;DHT22;880;52.452;8.656;2023-03-08T04:02:52;0.40;99.90
1766;DHT22;880;52.452;8.656;2023-03-08T04:05:20;0.40;99.90
1766;DHT22;880;52.452;8.656;2023-03-08T04:07:50;0.40;99.90
1766;DHT22;880;52.452;8.656;2023-03-08T04:10:20;0.40;99.90
1766;DHT22;880;52.452;8.656;2023-03-08T04:12:49;0.40;99.90
1766;DHT22;880;52.452;8.656;2023-03-08T04:15:19;0.40;99.90
1766;DHT22;880;52.452;8.656;2023-03-08T04:17:46;0.40;99.90
1766;DHT22;880;52.452;8.656;2023-03-08T04:20:14;0.40;99.90
1766;DHT22;880;52.452;8.656;2023-03-08T04:22:49;0.40;99.90
1766;DHT22;880;52.452;8.656;2023-03-08T04:25:22;0.40;99.90
1766;DHT22;880;52.452;8.656;2023-03-08T04:27:56;0.40;99.90
1766;DHT22;880;52.452;8.656;2023-03-08T04:30:23;0.50;99.90
1766;DHT22;880;52.452;8.656;2023-03-08T04:32:51;0.50;99.90
1766;DHT22;880;52.452;8.656;2023-03-08T04:35:22;0.50;99.90
1766;DHT22;880;52.452;8.656;2023-03-08T04:37:52;0.50;99.90
1766;DHT22;880;52.452;8.656;2023-03-08T04:40:22;0.50;99.90
1766;DHT22;880;52.452;8.656;2023-03-08T04:42:54;0.50;99.90
1766;DHT22;880;52.452;8.656;2023-03-08T04:45:26;0.60;99.90
1766;DHT22;880;52.452;8.656;2023-03-08T04:47:56;0.60;99.90
1766;DHT22;880;52.452;8.656;2023-03-08T04:50:23;0.60;99.90
1766;DHT22;880;52.452;8.656;2023-03-08T04:52:54;0.70;99.90
1766;DHT22;880;52.452;8.656;2023-03-08T04:55:22;0.70;99.90
1766;DHT22;880;52.452;8.656;2023-03-08T04:57:49;0.70;99.90
1766;DHT22;880;52.452;8.656;2023-03-08T05:00:17;0.60;99.90
1766;DHT22;880;52.452;8.656;2023-03-08T05:02:44;0.60;99.90
1766;DHT22;880;52.452;8.656;2023-03-08T05:05:16;0.60;99.90
1766;DHT22;880;52.452;8.656;2023-03-08T05:07:43;0.70;99.90
1766;DHT22;880;52.452;8.656;2023-03-08T05:10:10;0.60;99.90
1766;DHT22;880;52.452;8.656;2023-03-08T05:12:39;0.60;99.90
1766;DHT22;880;52.452;8.656;2023-03-08T05:15:07;0.70;99.90
1766;DHT22;880;52.452;8.656;2023-03-08T05:17:35;0.70;99.90
1766;DHT22;880;52.452;8.656;2023-03-08T05:20:03;0.60;99.90
1766;DHT22;880;52.452;8.656;2023-03-08T05:22:35;0.60;99.90
1766;DHT22;880;52.452;8.656;2023-03-08T05:25:22;0.60;99.90
1766;DHT22;880;52.452;8.656;2023-03-08T05:27:50;0.60;99.90
1766;DHT22;880;52.452;8.656;2023-03-08T05:30:19;0.60;99.90
1766;DHT22;880;52.452;8.656;2023-03-08T05:32:48;0.60;99.90
1766;DHT22;880;52.452;8.656;2023-03-08T05:35:15;0.60;99.90
1766;DHT22;880;52.452;8.656;2023-03-08T05:37:42;0.50;99.90
1766;DHT22;880;52.452;8.656;2023-03-08T05:40:11;0.50;99.90
1766;DHT22;880;52.452;8.656;2023-03-08T05:42:40;0.50;99.90
1766;DHT22;880;52.452;8.656;2023-03-08T05:45:08;0.50;99.90
1766;DHT22;880;52.452;8.656;2023-03-08T05:47:38;0.50;99.90
1766;DHT22;880;52.452;8.656;2023-03-08T05:50:07;0.60;99.90
1766;DHT22;880;52.452;8.656;2023-03-08T05:52:37;0.60;99.90
1766;DHT22;880;52.452;8.656;2023-03-08T05:55:05;0.60;99.90
1766;DHT22;880;52.452;8.656;2023-03-08T05:57:32;0.60;99.90
1766;DHT22;880;52.452;8.656;2023-03-08T05:59:59;0.60;99.90
1766;DHT22;880;52.452;8.656;2023-03-08T06:02:28;0.60;99.90
1766;DHT22;880;52.452;8.656;2023-03-08T06:04:56;0.50;99.90
1766;DHT22;880;52.452;8.656;2023-03-08T06:07:25;0.50;99.90
1766;DHT22;880;52.452;8.656;2023-03-08T06:09:57;0.50;99.90
1766;DHT22;880;52.452;8.656;2023-03-08T06:12:24;0.50;99.90
1766;DHT22;880;52.452;8.656;2023-03-08T06:14:54;0.50;99.90
1766;DHT22;880;52.452;8.656;2023-03-08T06:17:24;0.50;99.90
1766;DHT22;880;52.452;8.656;2023-03-08T06:19:53;0.50;99.90
1766;DHT22;880;52.452;8.656;2023-03-08T06:22:21;0.50;99.90
1766;DHT22;880;52.452;8.656;2023-03-08T06:25:13;0.50;99.90
1766;DHT22;880;52.452;8.656;2023-03-08T06:27:42;0.60;99.90
1766;DHT22;880;52.452;8.656;2023-03-08T06:30:20;0.60;99.90
1766;DHT22;880;52.452;8.656;2023-03-08T06:32:47;0.60;99.90
1766;DHT22;880;52.452;8.656;2023-03-08T06:35:14;0.60;99.90
1766;DHT22;880;52.452;8.656;2023-03-08T06:37:47;0.70;99.90
1766;DHT22;880;52.452;8.656;2023-03-08T06:40:14;0.70;99.90
1766;DHT22;880;52.452;8.656;2023-03-08T06:42:41;0.80;99.90
1766;DHT22;880;52.452;8.656;2023-03-08T06:45:12;0.80;99.90
1766;DHT22;880;52.452;8.656;2023-03-08T06:47:39;0.90;99.90
1766;DHT22;880;52.452;8.656;2023-03-08T06:50:07;0.80;99.90
1766;DHT22;880;52.452;8.656;2023-03-08T06:52:36;0.90;99.90
1766;DHT22;880;52.452;8.656;2023-03-08T06:55:06;0.90;99.90
1766;DHT22;880;52.452;8.656;2023-03-08T06:57:33;0.90;99.90
1766;DHT22;880;52.452;8.656;2023-03-08T07:00:00;1.00;99.90
1766;DHT22;880;52.452;8.656;2023-03-08T07:02:27;1.00;99.90
1766;DHT22;880;52.452;8.656;2023-03-08T07:04:54;1.10;99.90
1766;DHT22;880;52.452;8.656;2023-03-08T07:07:21;1.10;99.90
1766;DHT22;880;52.452;8.656;2023-03-08T07:09:48;1.10;99.90
1766;DHT22;880;52.452;8.656;2023-03-08T07:12:15;1.10;99.90
1766;DHT22;880;52.452;8.656;2023-03-08T07:14:42;1.10;99.90
1766;DHT22;880;52.452;8.656;2023-03-08T07:17:09;1.20;99.90
1766;DHT22;880;52.452;8.656;2023-03-08T07:19:36;1.10;99.90
1766;DHT22;880;52.452;8.656;2023-03-08T07:22:03;1.10;99.90
1766;DHT22;880;52.452;8.656;2023-03-08T07:24:30;1.10;99.90
1766;DHT22;880;52.452;8.656;2023-03-08T07:26:56;1.20;99.90
1766;DHT22;880;52.452;8.656;2023-03-08T07:29:23;1.20;99.90
1766;DHT22;880;52.452;8.656;2023-03-08T07:31:50;1.20;99.90
1766;DHT22;880;52.452;8.656;2023-03-08T07:34:17;1.30;99.90
1766;DHT22;880;52.452;8.656;2023-03-08T07:36:44;1.30;99.90
1766;DHT22;880;52.452;8.656;2023-03-08T07:39:11;1.40;99.90
1766;DHT22;880;52.452;8.656;2023-03-08T07:41:38;1.40;99.90
1766;DHT22;880;52.452;8.656;2023-03-08T07:44:05;1.40;99.90
1766;DHT22;880;52.452;8.656;2023-03-08T07:46:32;1.50;99.90
1766;DHT22;880;52.452;8.656;2023-03-08T07:48:59;1.50;99.90
1766;DHT22;880;52.452;8.656;2023-03-08T07:51:26;1.60;99.90
1766;DHT22;880;52.452;8.656;2023-03-08T07:53:53;1.60;99.90
1766;DHT22;880;52.452;8.656;2023-03-08T07:56:20;1.60;99.90
1766;DHT22;880;52.452;8.656;2023-03-08T07:58:47;1.60;99.90
1766;DHT22;880;52.452;8.656;2023-03-08T08:01:14;1.60;99.90
1766;DHT22;880;52.452;8.656;2023-03-08T08:03:43;1.60;99.90
1766;DHT22;880;52.452;8.656;2023-03-08T08:06:10;1.70;99.90
1766;DHT22;880;52.452;8.656;2023-03-08T08:08:37;1.60;99.90
1766;DHT22;880;52.452;8.656;2023-03-08T08:11:12;1.60;99.90
1766;DHT22;880;52.452;8.656;2023-03-08T08:13:40;1.50;99.90
1766;DHT22;880;52.452;8.656;2023-03-08T08:16:07;1.50;99.90
1766;DHT22;880;52.452;8.656;2023-03-08T08:18:35;1.40;99.90
1766;DHT22;880;52.452;8.656;2023-03-08T08:21:04;1.40;99.90
1766;DHT22;880;52.452;8.656;2023-03-08T08:23:34;1.40;99.90
1766;DHT22;880;52.452;8.656;2023-03-08T08:26:16;1.40;99.90
1766;DHT22;880;52.452;8.656;2023-03-08T08:28:45;1.40;99.90
1766;DHT22;880;52.452;8.656;2023-03-08T08:31:21;1.50;99.90
1766;DHT22;880;52.452;8.656;2023-03-08T08:33:49;1.50;99.90
1766;DHT22;880;52.452;8.656;2023-03-08T08:36:18;1.50;99.90
1766;DHT22;880;52.452;8.656;2023-03-08T08:38:46;1.50;99.90
1766;DHT22;880;52.452;8.656;2023-03-08T08:41:15;1.60;99.90
1766;DHT22;880;52.452;8.656;2023-03-08T08:43:44;1.60;99.90
1766;DHT22;880;52.452;8.656;2023-03-08T08:46:12;1.70;99.90
1766;DHT22;880;52.452;8.656;2023-03-08T08:48:40;1.70;99.90
1766;DHT22;880;52.452;8.656;2023-03-08T08:51:10;1.80;99.90
1766;DHT22;880;52.452;8.656;2023-03-08T08:53:38;1.80;99.90
1766;DHT22;880;52.452;8.656;2023-03-08T08:56:25;1.80;99.90
1766;DHT22;880;52.452;8.656;2023-03-08T08:58:59;1.80;99.90
1766;DHT22;880;52.452;8.656;2023-03-08T09:01:31;1.80;99.90
1766;DHT22;880;52.452;8.656;2023-03-08T09:03:59;1.90;99.90
1766;DHT22;880;52.452;8.656;2023-03-08T09:06:28;1.90;99.90
1766;DHT22;880;52.452;8.656;2023-03-08T09:08:57;2.00;99.90
1766;DHT22;880;52.452;8.656;2023-03-08T09:11:25;2.00;99.90
1766;DHT22;880;52.452;8.656;2023-03-08T09:13:53;2.00;99.90
1766;DHT22;880;52.452;8.656;2023-03-08T09:16:26;2.00;99.90
1766;DHT22;880;52.452;8.656;2023-03-08T09:18:55;2.00;99.90
1766;DHT22;880;52.452;8.656;2023-03-08T09:21:24;2.10;99.90
1766;DHT22;880;52.452;8.656;2023-03-08T09:23:52;2.10;99.90
1766;DHT22;880;52.452;8.656;2023-03-08T09:26:20;2.10;99.90
1766;DHT22;880;52.452;8.656;2023-03-08T09:28:47;2.20;99.90
1766;DHT22;880;52.452;8.656;2023-03-08T09:31:15;2.10;99.90
1766;DHT22;880;52.452;8.656;2023-03-08T09:33:48;2.20;99.90
1766;DHT22;880;52.452;8.656;2023-03-08T09:36:18;2.10;99.90
1766;DHT22;880;52.452;8.656;2023-03-08T09:38:47;2.20;99.90
1766;DHT22;880;52.452;8.656;2023-03-08T09:46:58;2.50;99.90
1766;DHT22;880;52.452;8.656;2023-03-08T09:49:33;2.50;99.90
1766;DHT22;880;52.452;8.656;2023-03-08T09:52:11;2.50;99.90
1766;DHT22;880;52.452;8.656;2023-03-08T09:54:45;2.60;99.90
1766;DHT22;880;52.452;8.656;2023-03-08T09:57:38;2.60;99.90
1766;DHT22;880;52.452;8.656;2023-03-08T10:00:20;2.70;99.90
1766;DHT22;880;52.452;8.656;2023-03-08T10:03:02;2.70;99.90
1766;DHT22;880;52.452;8.656;2023-03-08T10:08:37;2.70;99.90
1766;DHT22;880;52.452;8.656;2023-03-08T10:11:19;2.70;99.90
1766;DHT22;880;52.452;8.656;2023-03-08T10:13:53;2.70;99.90
1766;DHT22;880;52.452;8.656;2023-03-08T10:16:27;2.70;99.90
1766;DHT22;880;52.452;8.656;2023-03-08T10:19:04;2.70;99.90
1766;DHT22;880;52.452;8.656;2023-03-08T10:21:36;2.70;99.90
1766;DHT22;880;52.452;8.656;2023-03-08T10:24:15;2.70;99.90
1766;DHT22;880;52.452;8.656;2023-03-08T10:26:50;2.70;99.90
1766;DHT22;880;52.452;8.656;2023-03-08T10:29:17;2.70;99.90
1766;DHT22;880;52.452;8.656;2023-03-08T10:31:44;2.70;99.90
1766;DHT22;880;52.452;8.656;2023-03-08T10:34:21;2.80;99.90
1766;DHT22;880;52.452;8.656;2023-03-08T10:36:52;2.90;99.90
1766;DHT22;880;52.452;8.656;2023-03-08T10:39:29;3.00;99.90
1766;DHT22;880;52.452;8.656;2023-03-08T10:41:59;3.10;99.90
1766;DHT22;880;52.452;8.656;2023-03-08T10:44:40;3.10;99.90
1766;DHT22;880;52.452;8.656;2023-03-08T10:50:01;3.20;99.90
1766;DHT22;880;52.452;8.656;2023-03-08T10:52:39;3.20;99.90
1766;DHT22;880;52.452;8.656;2023-03-08T10:55:11;3.20;99.90
1766;DHT22;880;52.452;8.656;2023-03-08T10:57:59;3.20;99.90
1766;DHT22;880;52.452;8.656;2023-03-08T11:00:33;3.30;99.90
1766;DHT22;880;52.452;8.656;2023-03-08T11:03:14;3.30;99.90
1766;DHT22;880;52.452;8.656;2023-03-08T11:05:58;3.40;99.90
1766;DHT22;880;52.452;8.656;2023-03-08T11:08:34;3.40;99.90
1766;DHT22;880;52.452;8.656;2023-03-08T11:11:10;3.40;99.90
1766;DHT22;880;52.452;8.656;2023-03-08T11:13:41;3.50;99.90
1766;DHT22;880;52.452;8.656;2023-03-08T11:19:37;3.60;99.90
1766;DHT22;880;52.452;8.656;2023-03-08T11:31:07;3.90;99.90
1766;DHT22;880;52.452;8.656;2023-03-08T11:34:09;3.90;99.90
1766;DHT22;880;52.452;8.656;2023-03-08T11:39:46;3.90;99.90
1766;DHT22;880;52.452;8.656;2023-03-08T11:45:19;3.80;99.90
1766;DHT22;880;52.452;8.656;2023-03-08T11:48:14;3.70;99.90
1766;DHT22;880;52.452;8.656;2023-03-08T11:51:31;3.80;99.90
1766;DHT22;880;52.452;8.656;2023-03-08T11:54:21;3.90;99.90
1766;DHT22;880;52.452;8.656;2023-03-08T11:57:12;3.90;99.90
1766;DHT22;880;52.452;8.656;2023-03-08T11:59:50;4.00;99.90
1766;DHT22;880;52.452;8.656;2023-03-08T12:02:26;4.00;99.90
1766;DHT22;880;52.452;8.656;2023-03-08T12:05:26;4.00;99.90
1766;DHT22;880;52.452;8.656;2023-03-08T12:08:26;4.10;99.90
1766;DHT22;880;52.452;8.656;2023-03-08T12:10:58;4.30;99.90
1766;DHT22;880;52.452;8.656;2023-03-08T12:13:36;4.30;99.90
1766;DHT22;880;52.452;8.656;2023-03-08T12:16:32;4.50;99.90
1766;DHT22;880;52.452;8.656;2023-03-08T12:19:46;4.50;99.90
1766;DHT22;880;52.452;8.656;2023-03-08T12:22:25;4.50;99.90
1766;DHT22;880;52.452;8.656;2023-03-08T12:27:57;4.50;99.90
1766;DHT22;880;52.452;8.656;2023-03-08T12:33:44;4.80;99.90
1766;DHT22;880;52.452;8.656;2023-03-08T12:36:12;4.80;99.90
1766;DHT22;880;52.452;8.656;2023-03-08T12:38:41;4.70;99.90
1766;DHT22;880;52.452;8.656;2023-03-08T12:41:26;4.70;99.90
1766;DHT22;880;52.452;8.656;2023-03-08T12:44:21;4.80;99.90
1766;DHT22;880;52.452;8.656;2023-03-08T12:46:51;4.80;99.90
1766;DHT22;880;52.452;8.656;2023-03-08T12:49:35;4.80;99.90
1766;DHT22;880;52.452;8.656;2023-03-08T12:52:05;4.80;99.90
1766;DHT22;880;52.452;8.656;2023-03-08T12:57:33;4.80;99.90
1766;DHT22;880;52.452;8.656;2023-03-08T13:00:55;4.80;99.90
1766;DHT22;880;52.452;8.656;2023-03-08T13:03:49;4.70;99.90
1766;DHT22;880;52.452;8.656;2023-03-08T13:08:54;4.80;99.90
1766;DHT22;880;52.452;8.656;2023-03-08T13:11:43;4.70;99.90
1766;DHT22;880;52.452;8.656;2023-03-08T13:17:01;4.60;99.90
1766;DHT22;880;52.452;8.656;2023-03-08T13:19:29;4.50;99.90
1766;DHT22;880;52.452;8.656;2023-03-08T13:22:08;4.50;99.90
1766;DHT22;880;52.452;8.656;2023-03-08T13:24:57;4.40;99.90
1766;DHT22;880;52.452;8.656;2023-03-08T13:27:52;4.50;99.90
1766;DHT22;880;52.452;8.656;2023-03-08T13:30:28;4.40;99.90
1766;DHT22;880;52.452;8.656;2023-03-08T13:32:59;4.50;99.90
1766;DHT22;880;52.452;8.656;2023-03-08T13:35:26;4.50;99.90
1766;DHT22;880;52.452;8.656;2023-03-08T13:37:55;4.40;99.90
1766;DHT22;880;52.452;8.656;2023-03-08T13:40:26;4.30;99.90
1766;DHT22;880;52.452;8.656;2023-03-08T13:43:00;4.30;99.90
1766;DHT22;880;52.452;8.656;2023-03-08T13:45:30;4.40;99.90
1766;DHT22;880;52.452;8.656;2023-03-08T13:47:59;4.40;99.90
1766;DHT22;880;52.452;8.656;2023-03-08T13:50:34;4.30;99.90
1766;DHT22;880;52.452;8.656;2023-03-08T13:53:06;4.40;99.90
1766;DHT22;880;52.452;8.656;2023-03-08T13:55:42;4.40;99.90
1766;DHT22;880;52.452;8.656;2023-03-08T13:58:26;4.40;99.90
1766;DHT22;880;52.452;8.656;2023-03-08T14:01:11;4.40;99.90
1766;DHT22;880;52.452;8.656;2023-03-08T14:03:40;4.30;99.90
1766;DHT22;880;52.452;8.656;2023-03-08T14:08:48;4.10;99.90
1766;DHT22;880;52.452;8.656;2023-03-08T14:11:22;4.10;99.90
1766;DHT22;880;52.452;8.656;2023-03-08T14:13:53;4.00;99.90
1766;DHT22;880;52.452;8.656;2023-03-08T14:18:50;3.90;99.90
1766;DHT22;880;52.452;8.656;2023-03-08T14:21:22;3.80;99.90
1766;DHT22;880;52.452;8.656;2023-03-08T14:23:56;3.70;99.90
1766;DHT22;880;52.452;8.656;2023-03-08T14:26:37;3.70;99.90
1766;DHT22;880;52.452;8.656;2023-03-08T14:31:38;3.70;99.90
1766;DHT22;880;52.452;8.656;2023-03-08T14:34:17;3.70;99.90
1766;DHT22;880;52.452;8.656;2023-03-08T14:36:59;3.70;99.90
1766;DHT22;880;52.452;8.656;2023-03-08T14:39:46;3.80;99.90
1766;DHT22;880;52.452;8.656;2023-03-08T14:42:21;3.80;99.90
1766;DHT22;880;52.452;8.656;2023-03-08T14:47:24;3.80;99.90
1766;DHT22;880;52.452;8.656;2023-03-08T14:52:42;3.70;99.90
1766;DHT22;880;52.452;8.656;2023-03-08T14:55:23;3.60;99.90
1766;DHT22;880;52.452;8.656;2023-03-08T14:58:11;3.60;99.90
1766;DHT22;880;52.452;8.656;2023-03-08T15:00:52;3.50;99.90
1766;DHT22;880;52.452;8.656;2023-03-08T15:03:20;3.50;99.90
1766;DHT22;880;52.452;8.656;2023-03-08T15:05:47;3.50;99.90
1766;DHT22;880;52.452;8.656;2023-03-08T15:08:15;3.40;99.90
1766;DHT22;880;52.452;8.656;2023-03-08T15:10:43;3.40;99.90
1766;DHT22;880;52.452;8.656;2023-03-08T15:13:17;3.40;99.90
1766;DHT22;880;52.452;8.656;2023-03-08T15:15:46;3.50;99.90
1766;DHT22;880;52.452;8.656;2023-03-08T15:18:14;3.50;99.90
1766;DHT22;880;52.452;8.656;2023-03-08T15:20:43;3.50;99.90
1766;DHT22;880;52.452;8.656;2023-03-08T15:23:29;3.40;99.90
1766;DHT22;880;52.452;8.656;2023-03-08T15:25:58;3.40;99.90
1766;DHT22;880;52.452;8.656;2023-03-08T15:28:25;3.40;99.90
1766;DHT22;880;52.452;8.656;2023-03-08T15:30:52;3.40;99.90
1766;DHT22;880;52.452;8.656;2023-03-08T15:33:23;3.40;99.90
1766;DHT22;880;52.452;8.656;2023-03-08T15:35:50;3.40;99.90
1766;DHT22;880;52.452;8.656;2023-03-08T15:38:18;3.40;99.90
1766;DHT22;880;52.452;8.656;2023-03-08T15:40:46;3.40;99.90
1766;DHT22;880;52.452;8.656;2023-03-08T15:43:13;3.30;99.90
1766;DHT22;880;52.452;8.656;2023-03-08T15:45:40;3.30;99.90
1766;DHT22;880;52.452;8.656;2023-03-08T15:48:15;3.40;99.90
1766;DHT22;880;52.452;8.656;2023-03-08T15:50:44;3.30;99.90
1766;DHT22;880;52.452;8.656;2023-03-08T15:53:12;3.30;99.90
1766;DHT22;880;52.452;8.656;2023-03-08T15:55:51;3.20;99.90
1766;DHT22;880;52.452;8.656;2023-03-08T15:58:18;3.20;99.90
1766;DHT22;880;52.452;8.656;2023-03-08T16:00:45;3.10;99.90
1766;DHT22;880;52.452;8.656;2023-03-08T16:03:12;3.10;99.90
1766;DHT22;880;52.452;8.656;2023-03-08T16:05:40;3.00;99.90
1766;DHT22;880;52.452;8.656;2023-03-08T16:08:07;2.90;99.90
1766;DHT22;880;52.452;8.656;2023-03-08T16:10:34;2.90;99.90
1766;DHT22;880;52.452;8.656;2023-03-08T16:13:06;2.90;99.90
1766;DHT22;880;52.452;8.656;2023-03-08T16:15:33;2.90;99.90
1766;DHT22;880;52.452;8.656;2023-03-08T16:18:00;2.80;99.90
1766;DHT22;880;52.452;8.656;2023-03-08T16:20:27;2.80;99.90
1766;DHT22;880;52.452;8.656;2023-03-08T16:22:54;2.70;99.90
1766;DHT22;880;52.452;8.656;2023-03-08T16:25:21;2.70;99.90
1766;DHT22;880;52.452;8.656;2023-03-08T16:27:48;2.50;99.90
1766;DHT22;880;52.452;8.656;2023-03-08T16:30:15;2.50;99.90
1766;DHT22;880;52.452;8.656;2023-03-08T16:32:42;2.40;99.90
1766;DHT22;880;52.452;8.656;2023-03-08T16:35:09;2.40;99.90
1766;DHT22;880;52.452;8.656;2023-03-08T16:37:38;2.40;99.90
1766;DHT22;880;52.452;8.656;2023-03-08T16:40:06;2.40;99.90
1766;DHT22;880;52.452;8.656;2023-03-08T16:42:33;2.40;99.90
1766;DHT22;880;52.452;8.656;2023-03-08T16:45:00;2.40;99.90
1766;DHT22;880;52.452;8.656;2023-03-08T16:47:29;2.40;99.90
1766;DHT22;880;52.452;8.656;2023-03-08T16:49:58;2.40;99.90
1766;DHT22;880;52.452;8.656;2023-03-08T16:52:27;2.40;99.90
1766;DHT22;880;52.452;8.656;2023-03-08T16:54:55;2.40;99.90
1766;DHT22;880;52.452;8.656;2023-03-08T16:57:22;2.40;99.90
1766;DHT22;880;52.452;8.656;2023-03-08T16:59:49;2.40;99.90
1766;DHT22;880;52.452;8.656;2023-03-08T17:02:19;2.40;99.90
1766;DHT22;880;52.452;8.656;2023-03-08T17:04:47;2.30;99.90
1766;DHT22;880;52.452;8.656;2023-03-08T17:07:15;2.30;99.90
1766;DHT22;880;52.452;8.656;2023-03-08T17:09:42;2.40;99.90
1766;DHT22;880;52.452;8.656;2023-03-08T17:12:10;2.30;99.90
1766;DHT22;880;52.452;8.656;2023-03-08T17:14:37;2.20;99.90
1766;DHT22;880;52.452;8.656;2023-03-08T17:17:05;2.20;99.90
1766;DHT22;880;52.452;8.656;2023-03-08T17:19:32;2.20;99.90
1766;DHT22;880;52.452;8.656;2023-03-08T17:21:59;2.20;99.90
1766;DHT22;880;52.452;8.656;2023-03-08T17:24:26;2.20;99.90
1766;DHT22;880;52.452;8.656;2023-03-08T17:26:56;2.20;99.90
1766;DHT22;880;52.452;8.656;2023-03-08T17:29:22;2.20;99.90
1766;DHT22;880;52.452;8.656;2023-03-08T17:31:50;2.30;99.90
1766;DHT22;880;52.452;8.656;2023-03-08T17:34:18;2.30;99.90
1766;DHT22;880;52.452;8.656;2023-03-08T17:36:50;2.40;99.90
1766;DHT22;880;52.452;8.656;2023-03-08T17:39:17;2.40;99.90
1766;DHT22;880;52.452;8.656;2023-03-08T17:41:45;2.40;99.90
1766;DHT22;880;52.452;8.656;2023-03-08T17:44:12;2.40;99.90
1766;DHT22;880;52.452;8.656;2023-03-08T17:46:39;2.30;99.90
1766;DHT22;880;52.452;8.656;2023-03-08T17:49:06;2.30;99.90
1766;DHT22;880;52.452;8.656;2023-03-08T17:51:34;2.20;99.90
1766;DHT22;880;52.452;8.656;2023-03-08T17:54:01;2.20;99.90
1766;DHT22;880;52.452;8.656;2023-03-08T17:56:29;2.10;99.90
1766;DHT22;880;52.452;8.656;2023-03-08T17:58:58;2.10;99.90
1766;DHT22;880;52.452;8.656;2023-03-08T18:01:28;2.10;99.90
1766;DHT22;880;52.452;8.656;2023-03-08T18:03:56;2.00;99.90